Time;durP1;ratioP1;P1;durP2;ratioP2;P2;SDS_P1;SDS_P2;PMS_P1;PMS_P2;Temp;Humidity;BMP_temperature;BMP_pressure;BME280_temperature;BME280_humidity;BME280_pressure;Samples;Min_cycle;Max_cycle;Signal;HPM_P1;HPM_P2
2021/03/18 00:00:45;;;;;;;0.60;0.60;;;-0.60;99.90;;;;;;6146965;22;20193;-81
2021/03/18 00:03:12;;;;;;;0.60;0.60;;;-0.60;99.90;;;;;;6146939;22;20186;-81
2021/03/18 00:05:39;;;;;;;0.60;0.60;;;-0.60;99.90;;;;;;6146412;23;20220;-81
2021/03/18 00:08:06;;;;;;;0.60;0.60;;;-0.50;99.90;;;;;;6146623;23;20493;-80
2021/03/18 00:10:33;;;;;;;0.60;0.60;;;-0.60;99.90;;;;;;6147919;22;20230;-80
2021/03/18 00:12:59;;;;;;;0.50;0.50;;;-0.60;99.90;;;;;;6146671;23;20189;-81
2021/03/18 00:15:28;;;;;;;0.60;0.60;;;-0.60;99.90;;;;;;6146812;23;20177;-80
2021/03/18 00:17:55;;;;;;;0.60;0.60;;;-0.60;99.90;;;;;;6146758;22;20642;-80
2021/03/18 00:20:21;;;;;;;0.60;0.60;;;-0.70;99.90;;;;;;6146573;22;20174;-81
2021/03/18 00:22:48;;;;;;;0.60;0.60;;;-0.70;99.90;;;;;;6146852;22;20174;-81
2021/03/18 00:25:16;;;;;;;0.60;0.60;;;-0.60;99.90;;;;;;6146245;23;20186;-82
2021/03/18 00:27:45;;;;;;;0.60;0.60;;;-0.70;99.90;;;;;;6146639;23;20217;-80
2021/03/18 00:30:14;;;;;;;0.60;0.60;;;-0.70;99.90;;;;;;6146614;22;20658;-82
2021/03/18 00:32:41;;;;;;;0.50;0.50;;;-0.70;99.90;;;;;;6146161;23;20182;-80
2021/03/18 00:35:10;;;;;;;0.60;0.60;;;-0.70;99.90;;;;;;6146612;23;20189;-81
2021/03/18 00:37:36;;;;;;;0.60;0.60;;;-0.70;99.90;;;;;;6146733;23;20185;-81
2021/03/18 00:40:06;;;;;;;0.60;0.60;;;-0.80;99.90;;;;;;6146622;23;20189;-80
2021/03/18 00:42:33;;;;;;;0.57;0.57;;;-0.80;99.90;;;;;;6146621;22;20634;-80
2021/03/18 00:44:59;;;;;;;0.50;0.50;;;-0.90;99.90;;;;;;6146313;23;20170;-81
2021/03/18 00:47:25;;;;;;;0.60;0.60;;;-0.80;99.90;;;;;;6146510;23;20198;-81
2021/03/18 00:49:52;;;;;;;0.60;0.60;;;-0.80;99.90;;;;;;6146289;23;20182;-81
2021/03/18 00:52:18;;;;;;;0.60;0.60;;;-0.80;99.90;;;;;;6146122;23;20205;-81
2021/03/18 00:54:44;;;;;;;0.60;0.60;;;-0.90;99.90;;;;;;6146090;23;20227;-80
2021/03/18 00:57:10;;;;;;;0.60;0.60;;;-0.30;99.90;;;;;;6146620;23;20181;-80
2021/03/18 00:59:37;;;;;;;0.52;0.52;;;-0.90;99.90;;;;;;6146554;22;20193;-79
2021/03/18 01:02:03;;;;;;;0.60;0.60;;;-0.80;99.90;;;;;;6146451;23;20177;-79
2021/03/18 01:04:29;;;;;;;0.60;0.60;;;-0.70;99.90;;;;;;6146416;23;20189;-79
2021/03/18 01:06:56;;;;;;;0.60;0.60;;;-0.70;99.90;;;;;;6145958;23;20197;-80
2021/03/18 01:09:22;;;;;;;0.60;0.60;;;-0.80;99.90;;;;;;6146631;22;20193;-80
2021/03/18 01:11:48;;;;;;;0.60;0.60;;;-0.90;99.90;;;;;;6146474;23;20264;-80
2021/03/18 01:14:14;;;;;;;0.60;0.60;;;-0.90;99.90;;;;;;6146422;23;20247;-79
2021/03/18 01:16:45;;;;;;;0.60;0.60;;;-0.90;99.90;;;;;;6146073;23;20178;-79
2021/03/18 01:19:12;;;;;;;0.57;0.57;;;-1.00;99.90;;;;;;6146647;22;20227;-79
2021/03/18 01:21:40;;;;;;;0.60;0.60;;;-1.10;99.90;;;;;;6146189;22;20181;-79
2021/03/18 01:24:08;;;;;;;0.60;0.60;;;-1.10;99.90;;;;;;6146102;23;20231;-79
2021/03/18 01:26:35;;;;;;;0.60;0.60;;;-1.00;99.90;;;;;;6146224;23;20197;-79
2021/03/18 01:29:02;;;;;;;0.60;0.60;;;-1.00;99.90;;;;;;6145956;23;20420;-80
2021/03/18 01:31:28;;;;;;;0.60;0.60;;;-0.90;99.90;;;;;;6146069;23;20213;-79
2021/03/18 01:33:55;;;;;;;0.50;0.50;;;-0.90;99.90;;;;;;6146007;23;20642;-79
2021/03/18 01:36:23;;;;;;;0.60;0.60;;;-0.80;99.90;;;;;;6146507;22;20170;-78
2021/03/18 01:38:50;;;;;;;0.60;0.60;;;-0.80;99.90;;;;;;6146388;23;20189;-78
2021/03/18 01:41:19;;;;;;;0.60;0.60;;;-0.80;99.90;;;;;;6146274;23;20197;-79
2021/03/18 01:43:46;;;;;;;0.60;0.60;;;-0.80;99.90;;;;;;6145999;23;20185;-79
2021/03/18 01:46:13;;;;;;;0.60;0.60;;;-0.80;99.90;;;;;;6146281;23;20198;-78
2021/03/18 01:48:40;;;;;;;0.60;0.60;;;-0.80;99.90;;;;;;6146114;23;20235;-79
2021/03/18 01:51:06;;;;;;;0.60;0.60;;;-0.80;99.90;;;;;;6146033;22;20214;-79
2021/03/18 01:53:33;;;;;;;0.60;0.60;;;-0.80;99.90;;;;;;6146350;23;20558;-79
2021/03/18 01:56:01;;;;;;;0.60;0.60;;;-0.90;99.90;;;;;;6146288;22;20173;-79
2021/03/18 01:58:28;;;;;;;0.60;0.60;;;-0.90;99.90;;;;;;6146428;23;20236;-79
2021/03/18 02:00:57;;;;;;;0.52;0.52;;;-1.00;99.90;;;;;;6146409;23;20182;-81
2021/03/18 02:03:24;;;;;;;0.60;0.60;;;-1.10;99.90;;;;;;6146390;23;20185;-80
2021/03/18 02:05:51;;;;;;;0.50;0.50;;;-1.10;99.90;;;;;;6146280;23;20182;-79
2021/03/18 02:08:18;;;;;;;0.60;0.60;;;-1.00;99.90;;;;;;6145961;23;20235;-79
2021/03/18 02:10:44;;;;;;;0.50;0.50;;;-0.90;99.90;;;;;;6146410;22;20178;-79
2021/03/18 02:13:12;;;;;;;0.50;0.50;;;-0.30;99.90;;;;;;6146339;22;20216;-79
2021/03/18 02:15:43;;;;;;;0.57;0.57;;;-1.00;99.90;;;;;;6145632;22;20629;-80
2021/03/18 02:18:16;;;;;;;0.60;0.60;;;-0.80;99.90;;;;;;6145817;23;20181;-80
2021/03/18 02:21:34;;;;;;;0.60;0.60;;;-1.20;99.90;;;;;;6146271;23;20162;-79
2021/03/18 02:24:42;;;;;;;0.60;0.60;;;-1.30;99.90;;;;;;6176718;23;20166;-80
2021/03/18 02:27:38;;;;;;;0.60;0.60;;;-1.30;99.90;;;;;;6132185;23;20197;-79
2021/03/18 02:30:39;;;;;;;0.52;0.52;;;-1.30;99.90;;;;;;6145894;23;20178;-80
2021/03/18 02:33:37;;;;;;;0.60;0.60;;;-1.20;99.90;;;;;;6145666;23;20173;-80
2021/03/18 02:36:06;;;;;;;0.60;0.60;;;-1.20;99.90;;;;;;6146062;23;20165;-80
2021/03/18 02:38:39;;;;;;;0.60;0.60;;;-1.20;99.90;;;;;;6146028;23;20181;-80
2021/03/18 02:41:08;;;;;;;0.60;0.60;;;-1.20;99.90;;;;;;6145734;23;20611;-79
2021/03/18 02:43:54;;;;;;;0.50;0.50;;;-1.20;99.90;;;;;;6145846;23;20660;-80
2021/03/18 02:46:21;;;;;;;0.60;0.60;;;-1.20;99.90;;;;;;6145751;23;20234;-80
2021/03/18 02:48:48;;;;;;;0.60;0.60;;;-1.20;99.90;;;;;;6146146;22;20178;-80
2021/03/18 02:51:17;;;;;;;0.50;0.50;;;-1.20;99.90;;;;;;6145339;23;20217;-79
2021/03/18 02:53:45;;;;;;;0.60;0.60;;;-1.10;99.90;;;;;;6145627;22;20657;-79
2021/03/18 02:56:16;;;;;;;0.60;0.60;;;-1.00;99.90;;;;;;6145869;23;20181;-79
2021/03/18 02:58:44;;;;;;;0.60;0.60;;;-0.90;99.90;;;;;;6146113;22;20185;-79
2021/03/18 03:01:10;;;;;;;0.60;0.60;;;-0.80;99.90;;;;;;6145684;23;20239;-80
2021/03/18 03:03:36;;;;;;;0.60;0.60;;;-0.80;99.90;;;;;;6145428;22;20189;-79
2021/03/18 03:06:06;;;;;;;0.60;0.60;;;-0.80;99.90;;;;;;6145569;22;20862;-79
2021/03/18 03:08:34;;;;;;;0.60;0.60;;;-0.80;99.90;;;;;;6146006;22;20185;-80
2021/03/18 03:11:03;;;;;;;0.60;0.60;;;-0.80;99.90;;;;;;6145727;23;20178;-79
2021/03/18 03:13:32;;;;;;;0.60;0.60;;;-0.70;99.90;;;;;;6145582;23;20239;-79
2021/03/18 03:16:01;;;;;;;0.60;0.60;;;-0.90;99.90;;;;;;6145806;23;20185;-79
2021/03/18 03:18:28;;;;;;;0.60;0.60;;;-0.80;99.90;;;;;;6145832;23;20227;-80
2021/03/18 03:20:58;;;;;;;0.60;0.60;;;-0.80;99.90;;;;;;6146178;22;20174;-79
2021/03/18 03:23:25;;;;;;;0.60;0.60;;;-0.90;99.90;;;;;;6145657;23;20523;-80
2021/03/18 03:25:54;;;;;;;0.60;0.60;;;-0.80;99.90;;;;;;6145837;22;20185;-79
2021/03/18 03:28:21;;;;;;;0.60;0.60;;;-0.80;99.90;;;;;;6146775;22;20493;-79
2021/03/18 03:30:48;;;;;;;0.60;0.60;;;-0.70;99.90;;;;;;6146517;23;20227;-79
2021/03/18 03:33:15;;;;;;;0.60;0.60;;;-0.60;99.90;;;;;;6146528;23;20185;-80
2021/03/18 03:35:41;;;;;;;0.60;0.60;;;-0.60;99.90;;;;;;6146567;23;20174;-80
2021/03/18 03:38:08;;;;;;;0.60;0.60;;;-0.60;99.90;;;;;;6146802;23;20504;-80
2021/03/18 03:40:34;;;;;;;0.60;0.60;;;-0.50;99.90;;;;;;6146385;23;20612;-80
2021/03/18 03:43:03;;;;;;;0.60;0.60;;;-0.50;99.90;;;;;;6146980;22;20177;-80
2021/03/18 03:45:30;;;;;;;0.60;0.60;;;-0.50;99.90;;;;;;6146518;23;20181;-80
2021/03/18 03:47:57;;;;;;;0.50;0.50;;;-0.50;99.90;;;;;;6146399;23;20201;-81
2021/03/18 03:50:26;;;;;;;0.60;0.60;;;-0.50;99.90;;;;;;6146580;22;20217;-81
2021/03/18 03:52:58;;;;;;;0.60;0.60;;;-0.40;99.90;;;;;;6146688;22;20177;-81
2021/03/18 03:55:31;;;;;;;0.55;0.55;;;-0.40;99.90;;;;;;6146634;22;20204;-81
2021/03/18 03:57:59;;;;;;;0.50;0.50;;;-0.40;99.90;;;;;;6146833;22;20499;-79
2021/03/18 04:00:28;;;;;;;0.50;0.50;;;-0.30;99.90;;;;;;6146759;23;20779;-79
2021/03/18 04:02:59;;;;;;;0.60;0.60;;;-0.30;99.90;;;;;;6146498;23;20224;-80
2021/03/18 04:05:27;;;;;;;0.60;0.60;;;-0.30;99.90;;;;;;6146407;23;20513;-80
2021/03/18 04:07:58;;;;;;;0.52;0.52;;;-0.20;99.90;;;;;;6146200;23;20269;-80
2021/03/18 04:10:26;;;;;;;0.57;0.57;;;-0.30;99.90;;;;;;6146649;23;20219;-80
2021/03/18 04:12:54;;;;;;;0.60;0.60;;;-0.30;99.90;;;;;;6146429;23;20182;-80
2021/03/18 04:15:22;;;;;;;0.50;0.50;;;-0.30;99.90;;;;;;6146313;22;20192;-80
2021/03/18 04:17:53;;;;;;;0.60;0.60;;;-0.40;99.90;;;;;;6146629;22;20189;-80
2021/03/18 04:20:21;;;;;;;0.60;0.60;;;-0.40;99.90;;;;;;6146157;23;20177;-80
2021/03/18 04:22:52;;;;;;;0.60;0.60;;;-0.30;99.90;;;;;;6146645;23;20181;-80
2021/03/18 04:25:20;;;;;;;0.60;0.60;;;-0.30;99.90;;;;;;6146646;23;20169;-80
2021/03/18 04:27:48;;;;;;;0.60;0.60;;;-0.40;99.90;;;;;;6146005;23;20674;-80
2021/03/18 04:30:16;;;;;;;0.50;0.50;;;-0.40;99.90;;;;;;6146731;23;20177;-80
2021/03/18 04:32:47;;;;;;;0.55;0.55;;;-0.40;99.90;;;;;;6146551;22;20244;-80
2021/03/18 04:35:17;;;;;;;0.57;0.57;;;-0.40;99.90;;;;;;6140133;23;20177;-80
2021/03/18 04:37:44;;;;;;;0.52;0.52;;;-0.40;99.90;;;;;;6140741;22;20181;-80
2021/03/18 04:40:12;;;;;;;0.55;0.55;;;-0.50;99.90;;;;;;6142423;23;20800;-80
2021/03/18 04:42:39;;;;;;;0.50;0.50;;;-0.50;99.90;;;;;;6145043;22;20182;-80
2021/03/18 04:45:07;;;;;;;0.60;0.60;;;-0.50;99.90;;;;;;6142899;22;20178;-80
2021/03/18 04:47:35;;;;;;;0.60;0.60;;;-0.50;99.90;;;;;;6140388;23;20198;-80
2021/03/18 04:50:02;;;;;;;0.60;0.60;;;-0.50;99.90;;;;;;6136142;23;20478;-80
2021/03/18 04:52:29;;;;;;;0.60;0.60;;;-0.50;99.90;;;;;;6142449;23;20550;-80
2021/03/18 04:55:00;;;;;;;0.60;0.60;;;-0.50;99.90;;;;;;6142862;22;20178;-80
2021/03/18 04:57:26;;;;;;;0.60;0.60;;;-0.50;99.90;;;;;;6140202;23;20346;-80
2021/03/18 04:59:55;;;;;;;0.50;0.50;;;-0.50;99.90;;;;;;6145391;23;20189;-80
2021/03/18 05:02:24;;;;;;;0.60;0.60;;;-0.60;99.90;;;;;;6144861;22;20189;-80
2021/03/18 05:04:51;;;;;;;0.60;0.60;;;-0.50;99.90;;;;;;6147261;23;20500;-80
2021/03/18 05:07:20;;;;;;;0.60;0.60;;;-0.60;99.90;;;;;;6146825;23;20198;-80
2021/03/18 05:09:48;;;;;;;0.60;0.60;;;-0.50;99.90;;;;;;6147038;23;20586;-80
2021/03/18 05:12:14;;;;;;;0.60;0.60;;;-0.40;99.90;;;;;;6147219;22;20178;-80
2021/03/18 05:14:41;;;;;;;0.60;0.60;;;-0.30;99.90;;;;;;6147011;22;20232;-81
2021/03/18 05:17:08;;;;;;;0.60;0.60;;;-0.20;99.90;;;;;;6146573;23;20174;-80
2021/03/18 05:19:36;;;;;;;0.60;0.60;;;-0.10;99.90;;;;;;6147091;22;20189;-80
2021/03/18 05:22:04;;;;;;;0.50;0.50;;;-0.10;99.90;;;;;;6146883;22;20439;-80
2021/03/18 05:24:30;;;;;;;0.50;0.50;;;0.00;99.90;;;;;;6147110;22;20181;-80
2021/03/18 05:26:57;;;;;;;0.60;0.60;;;0.00;99.90;;;;;;6147099;22;20201;-81
2021/03/18 05:29:24;;;;;;;0.50;0.50;;;0.10;99.90;;;;;;6148328;23;20177;-81
2021/03/18 05:31:50;;;;;;;0.50;0.50;;;0.10;99.90;;;;;;6148168;22;20184;-80
2021/03/18 05:34:16;;;;;;;0.60;0.60;;;0.10;99.90;;;;;;6148578;22;20185;-81
2021/03/18 05:36:42;;;;;;;0.60;0.60;;;0.10;99.90;;;;;;6148320;22;20173;-81
2021/03/18 05:39:09;;;;;;;0.60;0.60;;;0.00;99.90;;;;;;6144704;23;20193;-80
2021/03/18 05:41:35;;;;;;;0.57;0.57;;;-0.20;99.90;;;;;;6146964;23;20247;-80
2021/03/18 05:44:04;;;;;;;0.50;0.50;;;0.00;99.90;;;;;;6146657;23;20196;-80
2021/03/18 05:46:32;;;;;;;0.60;0.60;;;0.00;99.90;;;;;;6146439;23;20230;-80
2021/03/18 05:48:59;;;;;;;0.55;0.55;;;0.00;99.90;;;;;;6146516;23;20235;-80
2021/03/18 05:51:27;;;;;;;0.60;0.60;;;0.00;99.90;;;;;;6146386;22;20220;-80
2021/03/18 05:53:54;;;;;;;0.60;0.60;;;-0.10;99.90;;;;;;6146892;23;20178;-80
2021/03/18 05:56:22;;;;;;;0.60;0.60;;;-0.10;99.90;;;;;;6146691;23;20196;-79
2021/03/18 05:58:49;;;;;;;0.50;0.50;;;0.00;99.90;;;;;;6146875;23;20178;-80
2021/03/18 06:01:17;;;;;;;0.57;0.57;;;-0.10;99.90;;;;;;6146657;23;20201;-80
2021/03/18 06:03:44;;;;;;;0.60;0.60;;;-0.10;99.90;;;;;;6144622;23;20375;-79
2021/03/18 06:06:11;;;;;;;0.60;0.60;;;-0.10;99.90;;;;;;6145189;23;20602;-80
2021/03/18 06:08:38;;;;;;;0.50;0.50;;;-0.10;99.90;;;;;;6145240;23;20231;-80
2021/03/18 06:11:05;;;;;;;0.60;0.60;;;-0.20;99.90;;;;;;6146529;23;20236;-80
2021/03/18 06:13:32;;;;;;;0.60;0.60;;;-0.30;99.90;;;;;;6147072;23;20182;-80
2021/03/18 06:15:58;;;;;;;0.50;0.50;;;-0.30;99.90;;;;;;6146208;23;20839;-79
2021/03/18 06:18:25;;;;;;;0.50;0.50;;;-0.20;99.90;;;;;;6146423;22;20458;-80
2021/03/18 06:20:53;;;;;;;0.50;0.50;;;-0.20;99.90;;;;;;6144768;23;20174;-80
2021/03/18 06:23:19;;;;;;;0.50;0.50;;;-0.20;99.90;;;;;;6147429;23;20201;-80
2021/03/18 06:25:47;;;;;;;0.50;0.50;;;-0.20;99.90;;;;;;6147175;23;20182;-80
2021/03/18 06:28:19;;;;;;;0.50;0.50;;;-0.20;99.90;;;;;;6149576;22;20202;-80
2021/03/18 06:31:00;;;;;;;0.55;0.55;;;-0.20;99.90;;;;;;6147790;22;20166;-80
2021/03/18 06:33:29;;;;;;;0.55;0.55;;;-0.20;99.90;;;;;;6147512;22;20619;-80
2021/03/18 06:35:57;;;;;;;0.50;0.50;;;-0.20;99.90;;;;;;6147079;23;20178;-80
2021/03/18 06:38:29;;;;;;;0.50;0.50;;;-0.30;99.90;;;;;;6146689;23;20283;-80
2021/03/18 06:40:56;;;;;;;0.50;0.50;;;-0.40;99.90;;;;;;6146110;23;20189;-80
2021/03/18 06:43:39;;;;;;;0.50;0.50;;;-0.30;99.90;;;;;;6146562;22;20204;-81
2021/03/18 06:46:16;;;;;;;0.50;0.50;;;-0.40;99.90;;;;;;6146577;22;20166;-81
2021/03/18 06:48:44;;;;;;;0.50;0.50;;;-0.30;99.90;;;;;;6127006;23;20231;-81
2021/03/18 06:51:21;;;;;;;0.50;0.50;;;-0.40;99.90;;;;;;6134634;22;20210;-81
2021/03/18 06:53:47;;;;;;;0.50;0.50;;;-0.50;99.90;;;;;;6144818;23;20185;-80
2021/03/18 06:56:31;;;;;;;0.50;0.50;;;-0.50;99.90;;;;;;6141479;23;20493;-81
2021/03/18 06:58:57;;;;;;;0.50;0.50;;;-0.50;99.90;;;;;;6145586;22;20170;-80
2021/03/18 07:01:26;;;;;;;0.60;0.60;;;-0.50;99.90;;;;;;6144864;23;20209;-81
2021/03/18 07:04:02;;;;;;;0.50;0.50;;;-0.50;99.90;;;;;;6143594;22;20181;-81
2021/03/18 07:06:31;;;;;;;0.60;0.60;;;-0.60;99.90;;;;;;6142611;22;20186;-80
2021/03/18 07:09:07;;;;;;;0.50;0.50;;;-0.60;99.90;;;;;;6144420;23;20178;-81
2021/03/18 07:11:40;;;;;;;0.50;0.50;;;-0.50;99.90;;;;;;6146093;22;20178;-82
2021/03/18 07:14:07;;;;;;;0.50;0.50;;;-0.50;99.90;;;;;;6144988;23;20174;-80
2021/03/18 07:16:45;;;;;;;0.50;0.50;;;-0.50;99.90;;;;;;6145491;22;20659;-80
2021/03/18 07:19:22;;;;;;;0.50;0.50;;;-0.50;99.90;;;;;;6143924;22;20636;-81
2021/03/18 07:21:49;;;;;;;0.50;0.50;;;-0.50;99.90;;;;;;6145668;22;20188;-80
2021/03/18 07:24:27;;;;;;;0.50;0.50;;;-0.50;99.90;;;;;;6139062;22;20177;-80
2021/03/18 07:26:57;;;;;;;0.50;0.50;;;-0.40;99.90;;;;;;6145509;23;20267;-80
2021/03/18 07:29:25;;;;;;;0.50;0.50;;;-0.50;99.90;;;;;;6144574;22;20219;-80
2021/03/18 07:31:52;;;;;;;0.50;0.50;;;-0.60;99.90;;;;;;6144782;23;20177;-81
2021/03/18 07:34:19;;;;;;;0.50;0.50;;;-0.60;99.90;;;;;;6144042;23;20653;-81
2021/03/18 07:36:47;;;;;;;0.50;0.50;;;-0.50;99.90;;;;;;6145157;22;20174;-82
2021/03/18 07:39:14;;;;;;;0.50;0.50;;;-0.50;99.90;;;;;;6144737;23;20588;-80
2021/03/18 07:41:44;;;;;;;0.50;0.50;;;-0.50;99.90;;;;;;6145479;23;20239;-81
2021/03/18 07:44:14;;;;;;;0.50;0.50;;;-0.40;99.90;;;;;;6145461;22;20235;-81
2021/03/18 07:46:42;;;;;;;0.50;0.50;;;-0.30;99.90;;;;;;6145694;22;20256;-81
2021/03/18 07:49:13;;;;;;;0.50;0.50;;;-0.20;99.90;;;;;;6143871;22;20260;-82
2021/03/18 07:51:54;;;;;;;0.50;0.50;;;-0.10;99.90;;;;;;6145275;22;20213;-83
2021/03/18 07:54:21;;;;;;;0.45;0.45;;;1.00;99.90;;;;;;6148084;22;20182;-81
2021/03/18 07:56:50;;;;;;;0.50;0.50;;;0.00;99.90;;;;;;6144747;23;20201;-81
2021/03/18 07:59:19;;;;;;;0.50;0.50;;;0.00;99.90;;;;;;6144194;23;20181;-81
2021/03/18 08:01:45;;;;;;;0.50;0.50;;;-0.10;99.90;;;;;;6145725;22;20182;-83
2021/03/18 08:04:14;;;;;;;0.50;0.50;;;0.00;99.90;;;;;;6144703;22;20768;-83
2021/03/18 08:06:48;;;;;;;0.50;0.50;;;0.00;99.90;;;;;;6145723;22;20197;-83
2021/03/18 08:09:17;;;;;;;0.45;0.45;;;0.10;99.90;;;;;;6141834;23;20211;-83
2021/03/18 08:11:45;;;;;;;0.50;0.50;;;0.10;99.90;;;;;;6142374;22;20524;-83
2021/03/18 08:14:15;;;;;;;0.45;0.45;;;0.00;99.90;;;;;;6145551;23;20535;-83
2021/03/18 08:16:42;;;;;;;0.50;0.50;;;0.00;99.90;;;;;;6147650;22;20631;-82
2021/03/18 08:19:09;;;;;;;0.50;0.50;;;-0.10;99.90;;;;;;6145621;23;20642;-82
2021/03/18 08:21:37;;;;;;;0.50;0.50;;;0.00;99.90;;;;;;6147401;23;20178;-82
2021/03/18 08:24:05;;;;;;;0.50;0.50;;;0.00;99.90;;;;;;6147122;23;20184;-83
2021/03/18 08:26:45;;;;;;;0.50;0.50;;;0.10;99.90;;;;;;6146930;22;20193;-81
2021/03/18 08:29:14;;;;;;;0.50;0.50;;;0.00;99.90;;;;;;6142753;22;20178;-82
2021/03/18 08:32:04;;;;;;;0.50;0.50;;;0.00;99.90;;;;;;6146756;22;20208;-82
2021/03/18 08:34:46;;;;;;;0.50;0.50;;;0.00;99.90;;;;;;6145525;23;20300;-82
2021/03/18 08:37:15;;;;;;;0.50;0.50;;;0.10;99.90;;;;;;6146713;22;20174;-82
2021/03/18 08:39:49;;;;;;;0.50;0.50;;;0.20;99.90;;;;;;6146365;23;20217;-82
2021/03/18 08:42:49;;;;;;;0.50;0.50;;;0.30;99.90;;;;;;6149149;22;20182;-83
2021/03/18 08:45:42;;;;;;;0.50;0.50;;;0.30;99.90;;;;;;6055629;23;20541;-80
2021/03/18 08:48:14;;;;;;;0.50;0.50;;;0.30;99.90;;;;;;6053890;23;20211;-84
2021/03/18 08:50:52;;;;;;;0.50;0.50;;;0.40;99.90;;;;;;6117566;23;20212;-83
2021/03/18 08:53:36;;;;;;;0.40;0.40;;;0.40;99.90;;;;;;6145448;23;20173;-85
2021/03/18 08:56:07;;;;;;;0.50;0.50;;;0.30;99.90;;;;;;6146579;23;20170;-84
2021/03/18 08:58:53;;;;;;;0.40;0.40;;;0.30;99.90;;;;;;6146543;23;20163;-83
2021/03/18 09:01:20;;;;;;;0.40;0.40;;;0.40;99.90;;;;;;6147527;22;20245;-83
2021/03/18 09:03:56;;;;;;;0.50;0.50;;;0.40;99.90;;;;;;6145903;23;20178;-83
2021/03/18 09:06:27;;;;;;;0.50;0.50;;;0.40;99.90;;;;;;6146403;23;20162;-83
2021/03/18 09:08:53;;;;;;;0.50;0.50;;;0.60;99.90;;;;;;6146650;22;20162;-83
2021/03/18 09:11:24;;;;;;;0.50;0.50;;;0.70;99.90;;;;;;6146580;22;20205;-84
2021/03/18 09:13:51;;;;;;;0.50;0.50;;;0.60;99.90;;;;;;6146657;22;20264;-83
2021/03/18 09:16:22;;;;;;;0.50;0.50;;;0.60;99.90;;;;;;6146031;23;20182;-83
2021/03/18 09:18:48;;;;;;;0.50;0.50;;;0.60;99.90;;;;;;6145636;23;20181;-84
2021/03/18 09:21:18;;;;;;;0.40;0.40;;;0.60;99.90;;;;;;6147020;23;20185;-85
2021/03/18 09:23:46;;;;;;;0.50;0.50;;;0.50;99.90;;;;;;6148149;22;20765;-83
2021/03/18 09:26:21;;;;;;;0.50;0.50;;;0.60;99.90;;;;;;6147718;23;20178;-88
2021/03/18 09:28:52;;;;;;;0.50;0.50;;;0.80;99.90;;;;;;6143005;22;20165;-85
2021/03/18 09:31:22;;;;;;;0.50;0.50;;;1.30;99.90;;;;;;6146337;22;20265;-85
2021/03/18 09:33:53;;;;;;;0.50;0.50;;;0.80;99.90;;;;;;6147422;22;20630;-87
2021/03/18 09:36:22;;;;;;;0.50;0.50;;;0.80;99.90;;;;;;6145968;23;20181;-83
2021/03/18 09:38:55;;;;;;;0.50;0.50;;;1.10;99.90;;;;;;6145813;22;20185;-83
2021/03/18 09:41:24;;;;;;;0.40;0.40;;;1.10;99.90;;;;;;6146024;23;20181;-83
2021/03/18 09:44:01;;;;;;;0.50;0.50;;;1.10;99.90;;;;;;6147194;22;20185;-82
2021/03/18 09:46:30;;;;;;;0.50;0.50;;;1.10;99.90;;;;;;6146757;23;20166;-80
2021/03/18 09:49:00;;;;;;;0.50;0.50;;;1.10;99.90;;;;;;6143232;23;20209;-83
2021/03/18 09:51:27;;;;;;;0.50;0.50;;;1.00;99.90;;;;;;6145678;22;20210;-83
2021/03/18 09:53:59;;;;;;;0.50;0.50;;;1.10;99.90;;;;;;6146065;23;20592;-82
2021/03/18 09:56:28;;;;;;;0.40;0.40;;;1.10;99.90;;;;;;6146943;23;20186;-84
2021/03/18 09:59:04;;;;;;;0.50;0.50;;;1.20;99.90;;;;;;6148252;23;20261;-84
2021/03/18 10:01:31;;;;;;;0.50;0.50;;;1.30;99.90;;;;;;6148758;22;20486;-85
2021/03/18 10:03:58;;;;;;;0.40;0.40;;;0.70;99.90;;;;;;6147939;22;20189;-85
2021/03/18 10:06:30;;;;;;;0.40;0.40;;;0.60;99.90;;;;;;6147944;23;20186;-84
2021/03/18 10:09:18;;;;;;;0.50;0.50;;;1.30;99.90;;;;;;6147406;22;20255;-85
2021/03/18 10:11:46;;;;;;;0.50;0.50;;;1.80;99.90;;;;;;6150060;23;20170;-84
2021/03/18 10:14:15;;;;;;;0.50;0.50;;;1.30;99.90;;;;;;6153162;23;20204;-84
2021/03/18 10:16:42;;;;;;;0.40;0.40;;;1.30;99.90;;;;;;6152544;23;20181;-84
2021/03/18 10:19:13;;;;;;;0.50;0.50;;;2.30;99.90;;;;;;6153093;23;20199;-86
2021/03/18 10:21:40;;;;;;;0.50;0.50;;;1.20;99.90;;;;;;6144146;22;20219;-85
2021/03/18 10:24:14;;;;;;;0.40;0.40;;;1.40;99.90;;;;;;6143542;23;20759;-85
2021/03/18 10:26:41;;;;;;;0.50;0.50;;;1.50;99.90;;;;;;6144820;23;20178;-86
2021/03/18 10:29:09;;;;;;;0.50;0.50;;;1.50;99.90;;;;;;6144971;23;20186;-85
2021/03/18 10:31:38;;;;;;;0.40;0.40;;;1.40;99.90;;;;;;6144660;23;20177;-85
2021/03/18 10:34:06;;;;;;;0.50;0.50;;;1.70;99.90;;;;;;6144546;23;20257;-86
2021/03/18 10:36:34;;;;;;;0.40;0.40;;;1.50;99.90;;;;;;6145836;22;20186;-86
2021/03/18 10:39:02;;;;;;;0.50;0.50;;;1.30;99.90;;;;;;6145159;23;20489;-86
2021/03/18 10:41:28;;;;;;;0.40;0.40;;;1.50;99.90;;;;;;6145387;23;20626;-85
2021/03/18 10:43:55;;;;;;;0.50;0.50;;;1.60;99.90;;;;;;6145359;23;20219;-84
2021/03/18 10:46:28;;;;;;;0.50;0.50;;;1.80;99.90;;;;;;6146460;22;20186;-86
2021/03/18 10:48:56;;;;;;;0.50;0.50;;;1.60;99.90;;;;;;6143180;23;20169;-84
2021/03/18 10:51:29;;;;;;;0.50;0.50;;;1.70;99.90;;;;;;6143301;22;20209;-85
2021/03/18 10:53:55;;;;;;;0.50;0.50;;;1.70;99.90;;;;;;6144188;22;20189;-86
2021/03/18 10:56:26;;;;;;;0.50;0.50;;;1.80;99.90;;;;;;6144098;23;20182;-84
2021/03/18 10:58:54;;;;;;;0.40;0.40;;;1.80;99.90;;;;;;6143977;22;20168;-84
2021/03/18 11:01:24;;;;;;;0.50;0.50;;;1.80;99.90;;;;;;6143570;22;20182;-84
2021/03/18 11:03:51;;;;;;;0.50;0.50;;;2.00;99.90;;;;;;6142804;23;20166;-84
2021/03/18 11:06:20;;;;;;;0.50;0.50;;;2.00;99.90;;;;;;6142544;23;20185;-83
2021/03/18 11:08:50;;;;;;;0.50;0.50;;;2.20;99.90;;;;;;6143709;23;20569;-84
2021/03/18 11:11:20;;;;;;;0.50;0.50;;;2.20;99.90;;;;;;6143441;23;20178;-85
2021/03/18 11:13:46;;;;;;;0.50;0.50;;;2.30;99.90;;;;;;6143980;22;20261;-84
2021/03/18 11:16:19;;;;;;;0.50;0.50;;;2.30;99.90;;;;;;6143460;23;20261;-84
2021/03/18 11:18:47;;;;;;;0.50;0.50;;;2.40;99.90;;;;;;6142609;23;20162;-84
2021/03/18 11:21:25;;;;;;;0.50;0.50;;;2.40;99.90;;;;;;6142199;23;20292;-84
2021/03/18 11:23:53;;;;;;;0.50;0.50;;;2.40;99.90;;;;;;6143365;22;20177;-85
2021/03/18 11:26:25;;;;;;;0.50;0.50;;;2.40;99.90;;;;;;6143086;22;20768;-84
2021/03/18 11:28:58;;;;;;;0.50;0.50;;;2.40;99.90;;;;;;6143672;22;20182;-84
2021/03/18 11:31:26;;;;;;;0.50;0.50;;;2.40;99.90;;;;;;6143570;23;20496;-83
2021/03/18 11:33:53;;;;;;;0.50;0.50;;;2.40;99.90;;;;;;6140162;23;20182;-83
2021/03/18 11:36:20;;;;;;;0.50;0.50;;;2.50;99.90;;;;;;6144788;23;20189;-84
2021/03/18 11:38:49;;;;;;;0.50;0.50;;;2.70;99.90;;;;;;6144330;23;20669;-84
2021/03/18 11:41:16;;;;;;;0.50;0.50;;;2.90;99.90;;;;;;6142799;22;20178;-84
2021/03/18 11:43:42;;;;;;;0.50;0.50;;;3.10;99.90;;;;;;6145301;23;20235;-84
2021/03/18 11:46:08;;;;;;;0.50;0.50;;;3.20;99.90;;;;;;6144617;23;20260;-84
2021/03/18 11:48:35;;;;;;;0.50;0.50;;;3.10;99.90;;;;;;6144109;23;20212;-85
2021/03/18 11:51:05;;;;;;;0.50;0.50;;;3.10;99.90;;;;;;6145373;23;20292;-85
2021/03/18 11:53:34;;;;;;;0.60;0.60;;;3.20;99.90;;;;;;6147934;23;20181;-83
2021/03/18 11:56:04;;;;;;;0.50;0.50;;;3.20;99.90;;;;;;6146695;23;20185;-85
2021/03/18 11:58:32;;;;;;;0.50;0.50;;;3.40;99.90;;;;;;6143485;23;20882;-84
2021/03/18 12:00:58;;;;;;;0.50;0.50;;;3.50;99.90;;;;;;6145744;23;20181;-84
2021/03/18 12:03:25;;;;;;;0.60;0.60;;;3.60;99.90;;;;;;6144678;23;20186;-85
2021/03/18 12:06:15;;;;;;;0.60;0.60;;;3.60;99.90;;;;;;6153992;23;20280;-89
2021/03/18 12:08:41;;;;;;;0.50;0.50;;;3.50;99.90;;;;;;6147793;22;20239;-85
2021/03/18 12:11:08;;;;;;;0.50;0.50;;;4.80;99.90;;;;;;6146299;22;20259;-85
2021/03/18 12:13:36;;;;;;;0.50;0.50;;;3.90;99.90;;;;;;6149191;23;20186;-85
2021/03/18 12:16:03;;;;;;;0.55;0.55;;;3.20;99.90;;;;;;6151362;22;20791;-87
2021/03/18 12:18:30;;;;;;;0.50;0.50;;;4.10;99.90;;;;;;6151905;23;20174;-84
2021/03/18 12:20:56;;;;;;;0.50;0.50;;;4.10;99.90;;;;;;6150384;22;20182;-84
2021/03/18 12:23:24;;;;;;;0.60;0.60;;;4.40;99.90;;;;;;6148040;23;20618;-86
2021/03/18 12:25:51;;;;;;;0.57;0.57;;;4.60;99.90;;;;;;6147617;23;20200;-86
2021/03/18 12:28:18;;;;;;;0.50;0.50;;;4.90;99.90;;;;;;6148449;23;20198;-88
2021/03/18 12:30:46;;;;;;;0.50;0.50;;;5.00;99.90;;;;;;6151648;22;20517;-85
2021/03/18 12:33:13;;;;;;;0.60;0.60;;;5.10;99.90;;;;;;6146122;22;20268;-85
2021/03/18 12:35:39;;;;;;;0.50;0.50;;;5.50;99.90;;;;;;6147769;22;20189;-85
2021/03/18 12:38:06;;;;;;;0.50;0.50;;;5.90;99.90;;;;;;6146694;23;20173;-85
2021/03/18 12:40:32;;;;;;;0.60;0.60;;;5.70;99.90;;;;;;6146555;22;20182;-85
2021/03/18 12:42:59;;;;;;;0.60;0.60;;;5.70;99.90;;;;;;6147200;23;20181;-85
2021/03/18 12:45:31;;;;;;;0.60;0.60;;;6.10;99.90;;;;;;6145672;22;20182;-85
2021/03/18 12:47:57;;;;;;;0.60;0.60;;;6.50;99.90;;;;;;6147283;22;20204;-85
2021/03/18 12:50:26;;;;;;;0.50;0.50;;;6.80;99.90;;;;;;6143197;22;20248;-84
2021/03/18 12:52:52;;;;;;;0.60;0.60;;;6.60;99.90;;;;;;6146390;23;20223;-85
2021/03/18 12:55:19;;;;;;;0.57;0.57;;;7.10;99.90;;;;;;6146432;23;20178;-85
2021/03/18 12:57:48;;;;;;;0.52;0.52;;;6.90;99.90;;;;;;6146622;23;20223;-85
2021/03/18 13:00:21;;;;;;;0.52;0.52;;;8.80;99.90;;;;;;6122198;23;20186;-84
2021/03/18 13:02:51;;;;;;;0.52;0.52;;;7.00;99.90;;;;;;6139457;22;20224;-85